createdAt,value
2023-02-05T00:00:19.690Z,101026.84
2023-02-05T00:02:47.372Z,101035.44
2023-02-05T00:05:15.057Z,101026.84
2023-02-05T00:07:43.128Z,101026.84
2023-02-05T00:10:10.791Z,101027.75
2023-02-05T00:12:38.932Z,101028.56
2023-02-05T00:15:06.971Z,101020.78
2023-02-05T00:17:37.248Z,101036.41
2023-02-05T00:20:05.348Z,101028.59
2023-02-05T00:22:33.352Z,101026.88
2023-02-05T00:25:01.071Z,101033.78
2023-02-05T00:27:28.807Z,101032.03
2023-02-05T00:29:56.665Z,101032.91
2023-02-05T00:32:24.229Z,101027.69
2023-02-05T00:34:52.158Z,101030.31
2023-02-05T00:37:20.239Z,101034.66
2023-02-05T00:39:47.781Z,101034.59
2023-02-05T00:42:15.300Z,101037.16
2023-02-05T00:44:42.805Z,101040.72
2023-02-05T00:47:10.327Z,101039.00
2023-02-05T00:49:38.442Z,101042.44
2023-02-05T00:52:06.022Z,101045.94
2023-02-05T00:54:33.535Z,101041.56
2023-02-05T00:57:01.369Z,101045.03
2023-02-05T00:59:29.423Z,101046.75
2023-02-05T01:01:57.204Z,101044.19
2023-02-05T01:04:24.919Z,101042.47
2023-02-05T01:06:52.519Z,101039.88
2023-02-05T01:09:20.464Z,101039.88
2023-02-05T01:11:48.011Z,101055.38
2023-02-05T01:14:15.539Z,101056.22
2023-02-05T01:16:43.702Z,101057.94
2023-02-05T01:19:12.106Z,101056.22
2023-02-05T01:21:39.760Z,101054.50
2023-02-05T01:24:08.227Z,101059.66
2023-02-05T01:26:36.163Z,101059.63
2023-02-05T01:29:04.533Z,101063.09
2023-02-05T01:31:33.330Z,101060.44
2023-02-05T01:34:01.759Z,101055.22
2023-02-05T01:36:29.551Z,101053.47
2023-02-05T01:38:57.008Z,101056.97
2023-02-05T01:41:25.667Z,101066.47
2023-02-05T01:44:10.321Z,101060.41
2023-02-05T01:46:41.141Z,101064.69
2023-02-05T01:49:14.676Z,101065.56
2023-02-05T01:51:43.496Z,101069.03
2023-02-05T01:54:11.477Z,101065.56
2023-02-05T01:56:48.750Z,101062.97
2023-02-05T01:59:25.687Z,101066.44
2023-02-05T02:01:54.209Z,101058.69
2023-02-05T02:04:42.480Z,101063.91
2023-02-05T02:07:14.782Z,101069.91
2023-02-05T02:09:45.434Z,101075.06
2023-02-05T02:12:16.205Z,101071.59
2023-02-05T02:14:48.065Z,101068.16
2023-02-05T02:17:16.697Z,101077.66
2023-02-05T02:20:03.388Z,101076.72
2023-02-05T02:22:56.192Z,101075.88
2023-02-05T02:25:59.088Z,101076.78
2023-02-05T02:28:32.882Z,101081.03
2023-02-05T02:31:12.642Z,101082.78
2023-02-05T02:33:46.247Z,101080.16
2023-02-05T02:36:21.183Z,101082.84
2023-02-05T02:39:21.081Z,101086.25
2023-02-05T02:42:02.441Z,101084.53
2023-02-05T02:44:40.526Z,101084.53
2023-02-05T02:47:34.995Z,101096.63
2023-02-05T02:50:09.493Z,101088.88
2023-02-05T02:52:41.231Z,101082.84
2023-02-05T02:55:13.326Z,101081.16
2023-02-05T02:57:49.061Z,101085.41
2023-02-05T03:00:22.231Z,101088.91
2023-02-05T03:02:54.491Z,101087.19
2023-02-05T03:05:25.660Z,101084.59
2023-02-05T03:07:59.575Z,101089.75
2023-02-05T03:10:37.493Z,101090.53
2023-02-05T03:13:11.288Z,101084.44
2023-02-05T03:15:43.809Z,101084.53
2023-02-05T03:18:13.933Z,101090.59
2023-02-05T03:21:05.604Z,101089.78
2023-02-05T03:23:33.228Z,101094.09
2023-02-05T03:26:01.312Z,101095.78
2023-02-05T03:28:38.804Z,101099.31
2023-02-05T03:31:37.733Z,101090.63
2023-02-05T03:34:20.792Z,101095.81
2023-02-05T03:37:10.430Z,101097.53
2023-02-05T03:40:02.051Z,101100.97
2023-02-05T03:42:56.063Z,101105.38
2023-02-05T03:45:48.271Z,101108.84
2023-02-05T03:48:39.651Z,101105.44
2023-02-05T03:51:28.305Z,101114.13
2023-02-05T03:54:26.279Z,101110.63
2023-02-05T03:57:09.942Z,101122.78
2023-02-05T03:59:40.568Z,101119.25
2023-02-05T04:02:08.732Z,101129.66
2023-02-05T04:04:40.857Z,101117.63
2023-02-05T04:07:10.882Z,101119.34
2023-02-05T04:09:39.568Z,101121.06
2023-02-05T04:12:10.873Z,101118.53
2023-02-05T04:14:40.060Z,101121.97
2023-02-05T04:17:12.380Z,101122.00
2023-02-05T04:19:41.667Z,101121.19
2023-02-05T04:22:11.101Z,101129.84
2023-02-05T04:24:43.722Z,101128.94
2023-02-05T04:27:11.382Z,101129.81
2023-02-05T04:29:39.414Z,101131.53
2023-02-05T04:32:07.397Z,101133.28
2023-02-05T04:34:35.918Z,101142.81
2023-02-05T04:37:05.149Z,101143.69
2023-02-05T04:39:32.798Z,101138.44
2023-02-05T04:42:01.938Z,101142.78
2023-02-05T04:44:29.759Z,101133.25
2023-02-05T04:46:57.421Z,101146.22
2023-02-05T04:49:25.401Z,101146.22
2023-02-05T04:51:52.913Z,101150.50
2023-02-05T04:54:20.774Z,101161.78
2023-02-05T04:56:48.356Z,101162.63
2023-02-05T04:59:15.879Z,101154.00
2023-02-05T05:01:43.357Z,101163.50
2023-02-05T05:04:11.023Z,101161.75
2023-02-05T05:06:39.565Z,101157.47
2023-02-05T05:09:07.135Z,101163.53
2023-02-05T05:11:39.521Z,101166.97
2023-02-05T05:14:07.398Z,101167.91
2023-02-05T05:16:35.009Z,101168.78
2023-02-05T05:19:02.626Z,101172.22
2023-02-05T05:21:30.326Z,101171.34
2023-02-05T05:23:57.883Z,101175.69
2023-02-05T05:26:25.519Z,101175.72
2023-02-05T05:28:54.929Z,101173.16
2023-02-05T05:31:23.711Z,101176.66
2023-02-05T05:33:51.607Z,101179.22
2023-02-05T05:36:19.308Z,101181.81
2023-02-05T05:38:47.037Z,101185.31
2023-02-05T05:41:43.562Z,101187.03
2023-02-05T05:44:11.257Z,101192.25
2023-02-05T05:46:41.368Z,101198.31
2023-02-05T05:49:09.067Z,101202.63
2023-02-05T05:51:36.742Z,101200.88
2023-02-05T05:54:04.364Z,101205.25
2023-02-05T05:56:32.104Z,101200.06
2023-02-05T05:58:59.642Z,101200.88
2023-02-05T06:01:27.899Z,101212.16
2023-02-05T06:03:55.497Z,101216.47
2023-02-05T06:06:23.037Z,101218.22
2023-02-05T06:08:50.584Z,101208.72
2023-02-05T06:11:18.092Z,101217.34
2023-02-05T06:13:45.760Z,101215.66
2023-02-05T06:16:13.785Z,101220.81
2023-02-05T06:18:41.322Z,101224.28
2023-02-05T06:21:10.820Z,101227.75
2023-02-05T06:23:39.289Z,101224.28
2023-02-05T06:26:06.935Z,101236.41
2023-02-05T06:28:34.572Z,101231.19
2023-02-05T06:31:02.142Z,101235.50
2023-02-05T06:33:30.017Z,101238.09
2023-02-05T06:35:57.785Z,101242.44
2023-02-05T06:38:25.442Z,101245.06
2023-02-05T06:40:53.077Z,101250.25
2023-02-05T06:43:20.649Z,101253.69
2023-02-05T06:45:48.629Z,101246.72
2023-02-05T06:48:16.264Z,101246.72
2023-02-05T06:50:43.797Z,101252.75
2023-02-05T06:53:11.970Z,101251.94
2023-02-05T06:55:40.085Z,101253.66
2023-02-05T06:58:08.006Z,101257.13
2023-02-05T07:00:36.209Z,101250.16
2023-02-05T07:03:04.315Z,101257.09
2023-02-05T07:05:35.150Z,101251.91
2023-02-05T07:08:04.272Z,101253.66
2023-02-05T07:10:31.938Z,101261.47
2023-02-05T07:12:59.496Z,101253.66
2023-02-05T07:15:27.545Z,101256.28
2023-02-05T07:17:55.465Z,101252.81
2023-02-05T07:20:23.495Z,101260.56
2023-02-05T07:22:51.036Z,101257.16
2023-02-05T07:25:18.642Z,101259.75
2023-02-05T07:27:46.548Z,101257.16
2023-02-05T07:30:14.727Z,101258.91
2023-02-05T07:32:42.681Z,101257.19
2023-02-05T07:35:10.224Z,101260.63
2023-02-05T07:37:39.566Z,101252.81
2023-02-05T07:40:07.913Z,101253.72
2023-02-05T07:42:35.748Z,101255.44
2023-02-05T07:45:04.946Z,101257.19
2023-02-05T07:47:32.742Z,101251.13
2023-02-05T07:50:00.270Z,101258.94
2023-02-05T07:52:27.969Z,101258.06
2023-02-05T07:54:55.717Z,101254.59
2023-02-05T07:57:23.623Z,101265.84
2023-02-05T07:59:51.140Z,101265.81
2023-02-05T08:02:18.674Z,101265.84
2023-02-05T08:04:46.267Z,101263.25
2023-02-05T08:07:14.526Z,101263.25
2023-02-05T08:09:42.194Z,101271.03
2023-02-05T08:12:09.818Z,101264.09
2023-02-05T08:14:37.430Z,101271.88
2023-02-05T08:17:06.294Z,101271.88
2023-02-05T08:19:34.043Z,101269.28
2023-02-05T08:22:01.606Z,101265.78
2023-02-05T08:24:29.328Z,101266.69
2023-02-05T08:26:57.107Z,101263.22
2023-02-05T08:29:24.646Z,101262.38
2023-02-05T08:31:52.259Z,101264.94
2023-02-05T08:34:20.873Z,101266.66
2023-02-05T08:36:48.643Z,101261.44
2023-02-05T08:39:16.460Z,101267.50
2023-02-05T08:41:44.261Z,101264.03
2023-02-05T08:44:11.785Z,101264.91
2023-02-05T08:46:49.397Z,101263.22
2023-02-05T08:49:18.507Z,101265.00
2023-02-05T08:51:46.765Z,101271.00
2023-02-05T08:54:15.336Z,101269.28
2023-02-05T08:56:45.193Z,101265.84
2023-02-05T08:59:13.113Z,101266.69
2023-02-05T09:01:43.085Z,101256.25
2023-02-05T09:04:16.891Z,101266.66
2023-02-05T09:06:45.008Z,101268.38
2023-02-05T09:09:14.229Z,101260.56
2023-02-05T09:11:42.409Z,101261.47
2023-02-05T09:14:10.277Z,101264.09
2023-02-05T09:16:38.489Z,101262.38
2023-02-05T09:19:06.529Z,101268.44
2023-02-05T09:21:35.567Z,101268.41
2023-02-05T09:24:04.204Z,101272.72
2023-02-05T09:26:32.029Z,101271.88
2023-02-05T09:28:59.617Z,101267.50
2023-02-05T09:31:27.508Z,101275.31
2023-02-05T09:33:55.925Z,101279.69
2023-02-05T09:36:24.058Z,101282.28
2023-02-05T09:39:02.021Z,101273.63
2023-02-05T09:41:42.908Z,101283.16
2023-02-05T09:44:48.958Z,101277.97
2023-02-05T09:47:35.650Z,101276.19
2023-02-05T09:50:15.459Z,101276.16
2023-02-05T09:52:49.778Z,101274.41
2023-02-05T09:55:29.989Z,101272.59
2023-02-05T09:58:06.684Z,101269.16
2023-02-05T10:00:42.250Z,101271.75
2023-02-05T10:03:30.328Z,101268.28
2023-02-05T10:06:03.754Z,101258.78
2023-02-05T10:08:40.975Z,101260.41
2023-02-05T10:11:20.330Z,101263.88
2023-02-05T10:14:03.232Z,101250.81
2023-02-05T10:16:47.391Z,101250.81
2023-02-05T10:19:18.023Z,101257.81
2023-02-05T10:21:55.003Z,101251.00
2023-02-05T10:24:54.672Z,101253.63
2023-02-05T10:27:41.697Z,101257.00
2023-02-05T10:30:24.238Z,101262.28
2023-02-05T10:32:59.865Z,101258.84
2023-02-05T10:35:51.455Z,101261.47
2023-02-05T10:38:24.758Z,101265.88
2023-02-05T10:41:00.243Z,101268.50
2023-02-05T10:43:34.261Z,101267.59
2023-02-05T10:46:02.728Z,101275.41
2023-02-05T10:48:56.647Z,101277.16
2023-02-05T10:51:45.360Z,101272.81
2023-02-05T10:54:16.353Z,101278.84
2023-02-05T10:56:44.598Z,101276.28
2023-02-05T10:59:27.021Z,101282.34
2023-02-05T11:02:03.971Z,101274.53
2023-02-05T11:04:39.000Z,101280.59
2023-02-05T11:07:24.700Z,101275.41
2023-02-05T11:09:53.361Z,101284.06
2023-02-05T11:12:30.074Z,101285.78
2023-02-05T11:15:00.452Z,101286.66
2023-02-05T11:17:35.136Z,101283.22
2023-02-05T11:20:28.485Z,101281.47
2023-02-05T11:23:18.084Z,101287.50
2023-02-05T11:25:57.149Z,101291.00
2023-02-05T11:28:33.036Z,101279.72
2023-02-05T11:31:25.571Z,101284.91
2023-02-05T11:34:14.377Z,101285.78
2023-02-05T11:36:53.778Z,101297.06
2023-02-05T11:39:36.440Z,101301.41
2023-02-05T11:42:09.627Z,101294.44
2023-02-05T11:44:48.492Z,101307.41
2023-02-05T11:47:27.579Z,101301.34
2023-02-05T11:49:56.618Z,101304.81
2023-02-05T11:52:37.495Z,101302.22
2023-02-05T11:55:06.883Z,101302.25
2023-02-05T11:57:39.135Z,101292.72
2023-02-05T12:00:09.936Z,101293.56
2023-02-05T12:02:42.677Z,101297.88
2023-02-05T12:05:20.044Z,101287.47
2023-02-05T12:08:26.896Z,101292.66
2023-02-05T12:11:52.741Z,101284.00
2023-02-05T12:14:38.280Z,101284.00
2023-02-05T12:17:17.477Z,101289.16
2023-02-05T12:19:57.155Z,101289.22
2023-02-05T12:22:30.405Z,101292.72
2023-02-05T12:25:46.246Z,101290.09
2023-02-05T12:28:26.437Z,101312.66
2023-02-05T12:31:24.500Z,101317.84
2023-02-05T12:34:24.385Z,101316.97
2023-02-05T12:37:07.015Z,101324.78
2023-02-05T12:39:46.484Z,101324.75
2023-02-05T12:42:13.975Z,101327.31
2023-02-05T12:44:53.613Z,101324.75
2023-02-05T12:47:31.477Z,101322.13
2023-02-05T12:50:08.057Z,101327.34
2023-02-05T12:52:51.567Z,101339.47
2023-02-05T12:56:03.925Z,101343.81
2023-02-05T12:58:42.583Z,101344.69
2023-02-05T13:01:50.177Z,101347.28
2023-02-05T13:04:37.944Z,101353.34
2023-02-05T13:07:29.435Z,101358.53
2023-02-05T13:10:06.846Z,101351.63
2023-02-05T13:12:41.842Z,101364.59
2023-02-05T13:15:12.356Z,101359.41
2023-02-05T13:17:49.808Z,101372.44
2023-02-05T13:20:44.493Z,101369.81
2023-02-05T13:23:33.506Z,101377.63
2023-02-05T13:26:22.288Z,101368.94
2023-02-05T13:28:55.754Z,101379.34
2023-02-05T13:31:43.571Z,101384.53
2023-02-05T13:34:15.409Z,101391.47
2023-02-05T13:37:20.429Z,101384.50
2023-02-05T13:40:14.377Z,101391.47
2023-02-05T13:42:56.651Z,101398.41
2023-02-05T13:45:52.605Z,101399.25
2023-02-05T13:48:41.967Z,101402.75
2023-02-05T13:51:28.256Z,101401.88
2023-02-05T13:54:31.053Z,101403.59
2023-02-05T13:57:36.466Z,101408.81
2023-02-05T14:00:09.074Z,101412.28
2023-02-05T14:02:48.965Z,101406.19
2023-02-05T14:05:32.459Z,101403.59
2023-02-05T14:08:03.314Z,101409.66
2023-02-05T14:10:39.343Z,101411.41
2023-02-05T14:13:28.612Z,101421.78
2023-02-05T14:16:00.488Z,101420.06
2023-02-05T14:18:40.590Z,101416.59
2023-02-05T14:21:34.619Z,101419.19
2023-02-05T14:24:23.087Z,101424.38
2023-02-05T14:26:53.179Z,101417.44
2023-02-05T14:29:44.894Z,101421.72
2023-02-05T14:32:34.138Z,101419.97
2023-02-05T14:35:25.179Z,101412.19
2023-02-05T14:37:56.997Z,101412.19
2023-02-05T14:40:37.308Z,101415.63
2023-02-05T14:43:16.915Z,101422.53
2023-02-05T14:45:50.205Z,101422.53
2023-02-05T14:48:28.554Z,101424.25
2023-02-05T14:51:19.029Z,101426.84
2023-02-05T14:53:56.283Z,101418.16
2023-02-05T14:57:04.911Z,101434.69
2023-02-05T14:59:43.865Z,101445.06
2023-02-05T15:02:55.762Z,101445.06
2023-02-05T15:05:51.107Z,101446.78
2023-02-05T15:08:27.912Z,101452.88
2023-02-05T15:11:37.698Z,101461.50
2023-02-05T15:14:24.680Z,101464.13
2023-02-05T15:17:07.857Z,101465.84
2023-02-05T15:19:52.659Z,101462.34
2023-02-05T15:22:35.233Z,101468.44
2023-02-05T15:25:10.099Z,101477.97
2023-02-05T15:27:45.439Z,101475.31
2023-02-05T15:30:26.508Z,101474.47
2023-02-05T15:33:05.809Z,101477.94
2023-02-05T15:35:34.634Z,101483.13
2023-02-05T15:38:20.094Z,101472.72
2023-02-05T15:40:47.955Z,101470.09
2023-02-05T15:43:19.138Z,101476.13
2023-02-05T15:45:47.368Z,101482.16
2023-02-05T15:48:19.112Z,101479.63
2023-02-05T15:50:54.947Z,101485.69
2023-02-05T15:53:43.251Z,101491.78
2023-02-05T15:56:20.084Z,101486.50
2023-02-05T15:58:55.049Z,101489.97
2023-02-05T16:01:48.000Z,101495.19
2023-02-05T16:04:20.081Z,101500.38
2023-02-05T16:06:48.811Z,101494.28
2023-02-05T16:09:22.233Z,101496.88
2023-02-05T16:11:53.144Z,101487.34
2023-02-05T16:14:33.290Z,101499.41
2023-02-05T16:17:29.355Z,101495.91
2023-02-05T16:20:13.903Z,101502.84
2023-02-05T16:22:52.798Z,101508.13
2023-02-05T16:25:47.842Z,101497.75
2023-02-05T16:28:21.263Z,101506.31
2023-02-05T16:30:53.367Z,101507.25
2023-02-05T16:33:24.069Z,101505.50
2023-02-05T16:35:52.579Z,101504.59
2023-02-05T16:38:23.413Z,101499.41
2023-02-05T16:40:55.067Z,101501.16
2023-02-05T16:43:31.623Z,101513.25
2023-02-05T16:46:08.327Z,101510.72
2023-02-05T16:48:51.054Z,101516.75
2023-02-05T16:51:45.944Z,101509.72
2023-02-05T16:54:13.520Z,101523.56
2023-02-05T16:56:56.353Z,101507.06
2023-02-05T16:59:28.414Z,101504.47
2023-02-05T17:01:56.567Z,101513.22
2023-02-05T17:04:29.810Z,101517.50
2023-02-05T17:07:00.404Z,101514.84
2023-02-05T17:09:33.391Z,101520.03
2023-02-05T17:12:20.241Z,101513.94
2023-02-05T17:14:55.620Z,101524.34
2023-02-05T17:17:25.892Z,101533.94
2023-02-05T17:20:05.180Z,101528.69
2023-02-05T17:22:34.788Z,101531.34
2023-02-05T17:25:02.385Z,101541.72
2023-02-05T17:27:33.167Z,101541.75
2023-02-05T17:30:01.053Z,101540.91
2023-02-05T17:32:30.067Z,101526.09
2023-02-05T17:34:59.964Z,101535.56
2023-02-05T17:37:27.554Z,101538.16
2023-02-05T17:39:56.810Z,101547.69
2023-02-05T17:42:25.940Z,101539.06
2023-02-05T17:44:53.999Z,101548.66
2023-02-05T17:47:21.600Z,101537.31
2023-02-05T17:49:49.323Z,101544.22
2023-02-05T17:52:18.778Z,101540.81
2023-02-05T17:54:49.922Z,101550.31
2023-02-05T17:57:22.538Z,101543.28
2023-02-05T17:59:53.378Z,101546.81
2023-02-05T18:02:21.473Z,101560.66
2023-02-05T18:04:50.370Z,101556.31
2023-02-05T18:07:35.201Z,101556.28
2023-02-05T18:10:06.138Z,101548.53
2023-02-05T18:12:34.198Z,101551.13
2023-02-05T18:15:01.850Z,101545.03
2023-02-05T18:17:29.905Z,101558.91
2023-02-05T18:19:57.529Z,101555.47
2023-02-05T18:22:25.177Z,101557.13
2023-02-05T18:24:55.830Z,101563.25
2023-02-05T18:27:23.998Z,101564.09
2023-02-05T18:29:51.766Z,101567.59
2023-02-05T18:32:19.395Z,101577.16
2023-02-05T18:34:47.160Z,101571.03
2023-02-05T18:37:16.704Z,101573.63
2023-02-05T18:39:45.762Z,101570.97
2023-02-05T18:42:14.369Z,101570.16
2023-02-05T18:44:42.207Z,101571.06
2023-02-05T18:47:11.432Z,101576.25
2023-02-05T18:49:39.162Z,101576.22
2023-02-05T18:52:07.315Z,101577.06
2023-02-05T18:54:35.414Z,101571.03
2023-02-05T18:57:03.220Z,101584.84
2023-02-05T18:59:31.307Z,101590.91
2023-02-05T19:01:58.911Z,101580.59
2023-02-05T19:04:28.005Z,101585.84
2023-02-05T19:06:55.690Z,101584.91
2023-02-05T19:09:24.890Z,101593.53
2023-02-05T19:11:55.392Z,101586.66
2023-02-05T19:14:25.067Z,101587.50
2023-02-05T19:16:54.627Z,101586.53
2023-02-05T19:19:24.743Z,101582.25
2023-02-05T19:22:00.064Z,101586.59
2023-02-05T19:24:29.039Z,101591.78
2023-02-05T19:26:59.051Z,101577.84
2023-02-05T19:29:27.570Z,101588.28
2023-02-05T19:31:58.610Z,101596.16
2023-02-05T19:34:27.841Z,101594.44
2023-02-05T19:36:58.511Z,101595.34
2023-02-05T19:39:26.291Z,101593.50
2023-02-05T19:41:54.130Z,101594.44
2023-02-05T19:44:22.426Z,101596.97
2023-02-05T19:46:51.136Z,101604.75
2023-02-05T19:49:21.807Z,101603.06
2023-02-05T19:51:54.131Z,101613.47
2023-02-05T19:54:23.004Z,101613.47
2023-02-05T19:56:51.424Z,101617.84
2023-02-05T19:59:19.732Z,101624.81
2023-02-05T20:01:47.732Z,101626.50
2023-02-05T20:04:22.356Z,101617.81
2023-02-05T20:06:52.220Z,101623.03
2023-02-05T20:09:20.221Z,101623.03
2023-02-05T20:11:49.920Z,101629.94
2023-02-05T20:14:17.807Z,101625.63
2023-02-05T20:16:45.946Z,101628.16
2023-02-05T20:19:17.415Z,101625.44
2023-02-05T20:21:46.762Z,101629.88
2023-02-05T20:24:16.349Z,101623.84
2023-02-05T20:26:47.867Z,101618.59
2023-02-05T20:29:34.742Z,101621.25
2023-02-05T20:32:02.654Z,101622.97
2023-02-05T20:34:31.233Z,101635.13
2023-02-05T20:37:02.368Z,101639.41
2023-02-05T20:39:31.091Z,101641.13
2023-02-05T20:41:59.739Z,101637.63
2023-02-05T20:44:31.041Z,101645.53
2023-02-05T20:46:58.761Z,101635.97
2023-02-05T20:49:26.565Z,101642.06
2023-02-05T20:51:54.694Z,101645.47
2023-02-05T20:54:24.469Z,101645.47
2023-02-05T20:56:56.899Z,101653.25
2023-02-05T20:59:26.573Z,101650.63
2023-02-05T21:01:54.143Z,101654.97
2023-02-05T21:04:22.116Z,101666.25
2023-02-05T21:06:49.734Z,101661.91
2023-02-05T21:09:17.384Z,101660.13
2023-02-05T21:11:45.294Z,101667.91
2023-02-05T21:14:17.283Z,101664.38
2023-02-05T21:16:45.247Z,101677.34
2023-02-05T21:19:13.580Z,101668.69
2023-02-05T21:21:41.650Z,101679.00
2023-02-05T21:24:12.910Z,101683.28
2023-02-05T21:26:43.082Z,101682.47
2023-02-05T21:29:14.385Z,101688.56
2023-02-05T21:31:49.200Z,101689.47
2023-02-05T21:34:21.900Z,101689.44
2023-02-05T21:36:50.383Z,101694.69
2023-02-05T21:39:21.679Z,101693.69
2023-02-05T21:41:53.415Z,101704.94
2023-02-05T21:44:21.678Z,101697.16
2023-02-05T21:46:49.672Z,101703.28
2023-02-05T21:49:17.308Z,101698.00
2023-02-05T21:51:44.848Z,101689.38
2023-02-05T21:54:12.408Z,101692.84
2023-02-05T21:56:42.240Z,101692.84
2023-02-05T21:59:11.757Z,101700.66
2023-02-05T22:01:40.169Z,101696.31
2023-02-05T22:04:12.383Z,101698.03
2023-02-05T22:06:40.964Z,101695.50
2023-02-05T22:09:14.284Z,101696.38
2023-02-05T22:11:43.528Z,101704.16
2023-02-05T22:14:11.583Z,101705.88
2023-02-05T22:16:39.393Z,101704.13
2023-02-05T22:19:07.937Z,101698.94
2023-02-05T22:21:41.280Z,101700.69
2023-02-05T22:24:14.166Z,101710.25
2023-02-05T22:26:42.239Z,101701.56
2023-02-05T22:29:21.050Z,101710.19
2023-02-05T22:31:54.138Z,101702.34
2023-02-05T22:34:21.969Z,101704.97
2023-02-05T22:36:49.893Z,101713.63
2023-02-05T22:39:17.470Z,101700.53
2023-02-05T22:41:45.359Z,101707.59
2023-02-05T22:44:13.048Z,101706.69
2023-02-05T22:46:43.604Z,101709.09
2023-02-05T22:49:15.324Z,101710.91
2023-02-05T22:51:44.058Z,101709.25
2023-02-05T22:54:13.442Z,101705.72
2023-02-05T22:56:42.061Z,101701.34
2023-02-05T22:59:09.669Z,101703.94
2023-02-05T23:01:39.200Z,101703.94
2023-02-05T23:04:08.909Z,101713.44
2023-02-05T23:06:39.781Z,101711.69
2023-02-05T23:09:16.520Z,101717.75
2023-02-05T23:11:45.344Z,101709.97
2023-02-05T23:14:17.349Z,101720.31
2023-02-05T23:16:47.131Z,101732.34
2023-02-05T23:19:19.035Z,101732.31
2023-02-05T23:21:47.409Z,101738.25
2023-02-05T23:24:15.977Z,101746.00
2023-02-05T23:26:46.624Z,101743.44
2023-02-05T23:29:16.020Z,101752.09
2023-02-05T23:31:43.760Z,101755.63
2023-02-05T23:34:11.515Z,101759.94
2023-02-05T23:36:39.627Z,101752.16
2023-02-05T23:39:07.146Z,101762.25
2023-02-05T23:41:39.848Z,101765.78
2023-02-05T23:44:17.816Z,101756.31
2023-02-05T23:46:47.652Z,101769.19
2023-02-05T23:49:17.049Z,101765.72
2023-02-05T23:51:44.533Z,101761.31
2023-02-05T23:54:12.550Z,101770.97
2023-02-05T23:56:41.805Z,101777.84
2023-02-05T23:59:11.198Z,101779.44
